UAE6X OMDB-OPST
Flight info
| Callsign | UAE6X |
|---|---|
| Flight time | N/A |
| Altitude | 35000 |
| Route | ANVIX L223 TARDI N629 IVAKU G216 KC/N0478F370 R471 RK G214 LA J220 SLT |
| Aircraft | B77W/H-SDE2E3GHIJ1J3J4J5M1P2RWXYZ/LB1D1 |
Departure
| Time | 2026-04-20 14:50 |
|---|---|
| Airport | Dubai International Airport (OMDB) |
Arrival
| Time | N/A |
|---|---|
| Airport | Sialkot International Airport (OPST) |
| Time | Latitude | Longitude | Altitude | Speed | Heading |
|---|---|---|---|---|---|
| 2026-04-20 14:12 | 25.23849 | 55.37981 | 60 ft | 0 kts | 121° |
| 2026-04-20 14:36 | 25.23854 | 55.37970 | 60 ft | 2 kts | 111° |
| 2026-04-20 14:37 | 25.23860 | 55.37955 | 59 ft | 2 kts | 117° |
| 2026-04-20 14:37 | 25.23866 | 55.37942 | 58 ft | 0 kts | 122° |
| 2026-04-20 14:37 | 25.23872 | 55.37933 | 58 ft | 2 kts | 111° |
| 2026-04-20 14:37 | 25.23874 | 55.37916 | 57 ft | 2 kts | 79° |
| 2026-04-20 14:38 | 25.23869 | 55.37901 | 57 ft | 2 kts | 55° |
| 2026-04-20 14:38 | 25.23860 | 55.37889 | 56 ft | 0 kts | 32° |
| 2026-04-20 14:38 | 25.23855 | 55.37886 | 56 ft | 0 kts | 30° |
| 2026-04-20 14:41 | 25.23858 | 55.37888 | 56 ft | 3 kts | 31° |
| 2026-04-20 14:41 | 25.23909 | 55.37923 | 57 ft | 10 kts | 32° |
| 2026-04-20 14:42 | 25.23958 | 55.37957 | 59 ft | 6 kts | 31° |
| 2026-04-20 14:42 | 25.23995 | 55.37983 | 60 ft | 6 kts | 37° |
| 2026-04-20 14:42 | 25.24035 | 55.38020 | 60 ft | 9 kts | 38° |
| 2026-04-20 14:42 | 25.24104 | 55.38070 | 59 ft | 10 kts | 32° |
| 2026-04-20 14:43 | 25.24166 | 55.38077 | 59 ft | 9 kts | 319° |
| 2026-04-20 14:43 | 25.24217 | 55.37999 | 58 ft | 15 kts | 302° |
| 2026-04-20 14:43 | 25.24273 | 55.37899 | 58 ft | 14 kts | 302° |
| 2026-04-20 14:43 | 25.24330 | 55.37839 | 58 ft | 9 kts | 357° |
| 2026-04-20 14:44 | 25.24340 | 55.37840 | 58 ft | 0 kts | 11° |
| 2026-04-20 14:44 | 25.24358 | 55.37846 | 58 ft | 6 kts | 19° |
| 2026-04-20 14:44 | 25.24435 | 55.37893 | 58 ft | 16 kts | 36° |
| 2026-04-20 14:44 | 25.24540 | 55.37974 | 57 ft | 18 kts | 34° |
| 2026-04-20 14:45 | 25.24627 | 55.38036 | 58 ft | 6 kts | 33° |
| 2026-04-20 14:45 | 25.24636 | 55.38043 | 58 ft | 0 kts | 32° |
| 2026-04-20 14:45 | 25.24638 | 55.38045 | 58 ft | 0 kts | 32° |
| 2026-04-20 14:46 | 25.24651 | 55.38054 | 58 ft | 8 kts | 32° |
| 2026-04-20 14:46 | 25.24715 | 55.38098 | 58 ft | 10 kts | 28° |
| 2026-04-20 14:46 | 25.24760 | 55.38097 | 58 ft | 6 kts | 324° |
| 2026-04-20 14:47 | 25.24777 | 55.38078 | 58 ft | 0 kts | 303° |
| 2026-04-20 14:49 | 25.24780 | 55.38073 | 58 ft | 3 kts | 303° |
| 2026-04-20 14:49 | 25.24831 | 55.37983 | 57 ft | 39 kts | 301° |
| 2026-04-20 14:49 | 25.25099 | 55.37500 | 53 ft | 105 kts | 301° |
| 2026-04-20 14:50 | 25.25583 | 55.36627 | 52 ft | 160 kts | 301° |
| 2026-04-20 14:50 | 25.26195 | 55.35513 | 397 ft | 176 kts | 301° |
| 2026-04-20 14:50 | 25.26815 | 55.34317 | 985 ft | 187 kts | 298° |
| 2026-04-20 14:50 | 25.27441 | 55.33082 | 1699 ft | 181 kts | 303° |
| 2026-04-20 14:51 | 25.28138 | 55.31885 | 2117 ft | 189 kts | 303° |
| 2026-04-20 14:51 | 25.28839 | 55.30622 | 2460 ft | 193 kts | 294° |
| 2026-04-20 14:51 | 25.29117 | 55.29198 | 2721 ft | 196 kts | 270° |
| 2026-04-20 14:51 | 25.28819 | 55.27726 | 3054 ft | 203 kts | 249° |
| 2026-04-20 14:52 | 25.28223 | 55.26315 | 3587 ft | 204 kts | 247° |
| 2026-04-20 14:52 | 25.27613 | 55.24897 | 4105 ft | 206 kts | 248° |
| 2026-04-20 14:52 | 25.27013 | 55.23484 | 4624 ft | 207 kts | 248° |
| 2026-04-20 14:52 | 25.26394 | 55.22028 | 5128 ft | 209 kts | 248° |
| 2026-04-20 14:53 | 25.25774 | 55.20564 | 5527 ft | 217 kts | 248° |
| 2026-04-20 14:53 | 25.25103 | 55.18987 | 5790 ft | 234 kts | 245° |
| 2026-04-20 14:53 | 25.24057 | 55.17547 | 6114 ft | 252 kts | 217° |
| 2026-04-20 14:53 | 25.22427 | 55.16776 | 6550 ft | 264 kts | 188° |
| 2026-04-20 14:54 | 25.20548 | 55.16779 | 6983 ft | 273 kts | 172° |
| 2026-04-20 14:54 | 25.18769 | 55.17496 | 7522 ft | 276 kts | 144° |
| 2026-04-20 14:54 | 25.17419 | 55.19014 | 7831 ft | 287 kts | 118° |
| 2026-04-20 14:54 | 25.16496 | 55.21020 | 8215 ft | 297 kts | 113° |
| 2026-04-20 14:55 | 25.15597 | 55.23064 | 8827 ft | 299 kts | 114° |
| 2026-04-20 14:55 | 25.14634 | 55.25137 | 9460 ft | 302 kts | 115° |
| 2026-04-20 14:55 | 25.13662 | 55.27177 | 10053 ft | 305 kts | 115° |
| 2026-04-20 14:55 | 25.12652 | 55.29282 | 10627 ft | 310 kts | 115° |
| 2026-04-20 14:56 | 25.11647 | 55.31370 | 11284 ft | 312 kts | 115° |
| 2026-04-20 14:56 | 25.10625 | 55.33494 | 11902 ft | 316 kts | 116° |
| 2026-04-20 14:56 | 25.09676 | 55.35706 | 12557 ft | 319 kts | 111° |
| 2026-04-20 14:56 | 25.08783 | 55.37946 | 13234 ft | 324 kts | 112° |
| 2026-04-20 14:57 | 25.07872 | 55.40201 | 14029 ft | 325 kts | 112° |
| 2026-04-20 14:57 | 25.06948 | 55.42469 | 14705 ft | 331 kts | 112° |
| 2026-04-20 14:57 | 25.06025 | 55.44867 | 15190 ft | 346 kts | 111° |
| 2026-04-20 14:57 | 25.05068 | 55.47383 | 15580 ft | 364 kts | 112° |
| 2026-04-20 14:58 | 25.04062 | 55.50005 | 16026 ft | 379 kts | 112° |
| 2026-04-20 14:58 | 25.03024 | 55.52704 | 16516 ft | 394 kts | 112° |
| 2026-04-20 14:58 | 25.01887 | 55.55511 | 16939 ft | 409 kts | 118° |
| 2026-04-20 14:58 | 25.00450 | 55.58277 | 17326 ft | 424 kts | 121° |
| 2026-04-20 14:59 | 24.98909 | 55.61124 | 17875 ft | 435 kts | 121° |
| 2026-04-20 14:59 | 24.97366 | 55.63973 | 18615 ft | 439 kts | 121° |
| 2026-04-20 14:59 | 24.95801 | 55.66862 | 19368 ft | 443 kts | 121° |
| 2026-04-20 14:59 | 24.94184 | 55.69800 | 20074 ft | 449 kts | 124° |
| 2026-04-20 15:00 | 24.92397 | 55.72581 | 20707 ft | 455 kts | 127° |
| 2026-04-20 15:00 | 24.90504 | 55.75433 | 21379 ft | 460 kts | 127° |
| 2026-04-20 15:00 | 24.88603 | 55.78293 | 22061 ft | 465 kts | 127° |
| 2026-04-20 15:00 | 24.86687 | 55.81176 | 22737 ft | 469 kts | 127° |
| 2026-04-20 15:01 | 24.84752 | 55.84087 | 23423 ft | 473 kts | 127° |
| 2026-04-20 15:01 | 24.82803 | 55.87000 | 24104 ft | 477 kts | 127° |
| 2026-04-20 15:01 | 24.80837 | 55.89901 | 24766 ft | 480 kts | 128° |
| 2026-04-20 15:01 | 24.78819 | 55.92834 | 25408 ft | 483 kts | 130° |
| 2026-04-20 15:02 | 24.76500 | 55.95536 | 26029 ft | 485 kts | 138° |
| 2026-04-20 15:02 | 24.74038 | 55.98088 | 26665 ft | 488 kts | 139° |
| 2026-04-20 15:02 | 24.71568 | 56.00624 | 27312 ft | 490 kts | 139° |
| 2026-04-20 15:02 | 24.69065 | 56.03193 | 27993 ft | 492 kts | 139° |
| 2026-04-20 15:03 | 24.66566 | 56.05760 | 28625 ft | 494 kts | 139° |
| 2026-04-20 15:03 | 24.64070 | 56.08328 | 29178 ft | 498 kts | 139° |
| 2026-04-20 15:03 | 24.61509 | 56.10961 | 29834 ft | 499 kts | 139° |
| 2026-04-20 15:03 | 24.58984 | 56.13555 | 30509 ft | 500 kts | 139° |
| 2026-04-20 15:04 | 24.56523 | 56.16249 | 31139 ft | 502 kts | 133° |
| 2026-04-20 15:04 | 24.54238 | 56.19122 | 31793 ft | 501 kts | 132° |
| 2026-04-20 15:04 | 24.51966 | 56.22022 | 32392 ft | 501 kts | 132° |
| 2026-04-20 15:04 | 24.49698 | 56.24916 | 32968 ft | 501 kts | 131° |
| 2026-04-20 15:05 | 24.47406 | 56.27839 | 33583 ft | 500 kts | 131° |
| 2026-04-20 15:05 | 24.45101 | 56.30774 | 34062 ft | 501 kts | 131° |
| 2026-04-20 15:05 | 24.42801 | 56.33700 | 34345 ft | 506 kts | 131° |
| 2026-04-20 15:05 | 24.40465 | 56.36671 | 34702 ft | 509 kts | 131° |
| 2026-04-20 15:06 | 24.38146 | 56.39616 | 34909 ft | 513 kts | 131° |
| 2026-04-20 15:06 | 24.35820 | 56.42569 | 34893 ft | 513 kts | 131° |